Eko 4 — SVAR8 — position and weather

sailwx.info

Track history (hours):
 
Tides and Currents Weather Stations Pressure Air Temp Water Temp Dewpoint Dewpoint Depression Visibility Wind Speed Wind Dir Waves Ship Positions

Eko 4

Last reported at 2015-Aug-28 15:32 UTC. Time now 2015-Aug-28 22:24 UTC.
Position N 36°30' E 027°46'.

Length 88 m; draft 5 m.

Type: Ship (hazmat cat A). MMSI: 240912000.

Date/timePositionNaut miles runAvg speedWind from/ knotsBaromVisibWave heightAir tempDewpointWater temp
2015-Aug-28 15:32N 36°30' E 027°46'29 9.7
2015-Aug-28 12:33N 36°32' E 027°10'47 9.4
2015-Aug-28 07:32N 36°41' E 026°13'10 9.1
2015-Aug-28 06:26N 36°42' E 026°00'8 9.3
2015-Aug-28 05:33N 36°43' E 025°50'10 9.4
2015-Aug-28 04:32N 36°45' E 025°38'103 9.1
2015-Aug-27 17:12N 37°37' E 023°47'6 9.0
2015-Aug-27 16:33N 37°41' E 023°42'9 9.3
2015-Aug-27 15:34N 37°50' E 023°37'8 8.0
2015-Aug-27 14:33N 37°57' E 023°33'4 3.4
2015-Aug-27 13:32N 38°01' E 023°32'0 0.0
2015-Aug-27 12:33N 38°01' E 023°32'0 0.0
2015-Aug-27 11:32N 38°01' E 023°32'0 0.0
2015-Aug-27 10:33N 38°01' E 023°32'1 1.3
2015-Aug-27 09:32N 38°01' E 023°34'2 0.1
2015-Aug-26 17:06N 38°02' E 023°36'3 3.2
2015-Aug-26 16:14N 38°00' E 023°33'5 7.2
2015-Aug-26 15:33N 37°56' E 023°36'8 8.4
2015-Aug-26 14:33N 37°48' E 023°40'  
2015-Aug-23 03:23N 36°42' E 025°57'8 9.2
2015-Aug-23 02:32N 36°43' E 025°47'110 8.8
2015-Aug-22 14:05N 37°37' E 023°47'5 8.9
2015-Aug-22 13:33N 37°40' E 023°42'9 9.4
2015-Aug-22 12:33N 37°48' E 023°37'9 9.0
2015-Aug-22 11:32N 37°50' E 023°25'14 0.4
2015-Aug-21 00:31N 37°54' E 023°08'8 8.5
2015-Aug-20 23:33N 37°51' E 023°18'9 9.4
2015-Aug-20 22:33N 37°50' E 023°30'9 8.7
2015-Aug-20 21:33N 37°48' E 023°41'4310.3
2015-Aug-20 17:24N 37°08' E 023°60'5910.0
2015-Aug-20 11:27N 36°14' E 024°30'89 2.2
2015-Aug-18 18:09N 37°36' E 023°45'5 9.3
2015-Aug-18 17:34N 37°41' E 023°42'9 9.4
2015-Aug-18 16:33N 37°49' E 023°36'10 9.3
2015-Aug-18 15:32N 37°51' E 023°25'  
Track history (hours):
 
Tides and Currents Weather Stations Pressure Air Temp Water Temp Dewpoint Dewpoint Depression Visibility Wind Speed Wind Dir Waves Ship Positions

Eko 4

Last reported at 2015-Aug-28 15:32 UTC. Time now 2015-Aug-28 22:24 UTC.
Position N 36°30' E 027°46'.

Length 88 m; draft 5 m.

Type: Ship (hazmat cat A). MMSI: 240912000.

Date/timePositionNaut miles runAvg speedWind from/ knotsBaromVisibWave heightAir tempDewpointWater temp
2015-Aug-28 15:32N 36°30' E 027°46'29 9.7
2015-Aug-28 12:33N 36°32' E 027°10'47 9.4
2015-Aug-28 07:32N 36°41' E 026°13'10 9.1
2015-Aug-28 06:26N 36°42' E 026°00'8 9.3
2015-Aug-28 05:33N 36°43' E 025°50'10 9.4
2015-Aug-28 04:32N 36°45' E 025°38'103 9.1
2015-Aug-27 17:12N 37°37' E 023°47'6 9.0
2015-Aug-27 16:33N 37°41' E 023°42'9 9.3
2015-Aug-27 15:34N 37°50' E 023°37'8 8.0
2015-Aug-27 14:33N 37°57' E 023°33'4 3.4
2015-Aug-27 13:32N 38°01' E 023°32'0 0.0
2015-Aug-27 12:33N 38°01' E 023°32'0 0.0
2015-Aug-27 11:32N 38°01' E 023°32'0 0.0
2015-Aug-27 10:33N 38°01' E 023°32'1 1.3
2015-Aug-27 09:32N 38°01' E 023°34'2 0.1
2015-Aug-26 17:06N 38°02' E 023°36'3 3.2
2015-Aug-26 16:14N 38°00' E 023°33'5 7.2
2015-Aug-26 15:33N 37°56' E 023°36'8 8.4
2015-Aug-26 14:33N 37°48' E 023°40'  
2015-Aug-23 03:23N 36°42' E 025°57'8 9.2
2015-Aug-23 02:32N 36°43' E 025°47'110 8.8
2015-Aug-22 14:05N 37°37' E 023°47'5 8.9
2015-Aug-22 13:33N 37°40' E 023°42'9 9.4
2015-Aug-22 12:33N 37°48' E 023°37'9 9.0
2015-Aug-22 11:32N 37°50' E 023°25'14 0.4
2015-Aug-21 00:31N 37°54' E 023°08'8 8.5
2015-Aug-20 23:33N 37°51' E 023°18'9 9.4
2015-Aug-20 22:33N 37°50' E 023°30'9 8.7
2015-Aug-20 21:33N 37°48' E 023°41'4310.3
2015-Aug-20 17:24N 37°08' E 023°60'5910.0
2015-Aug-20 11:27N 36°14' E 024°30'89 2.2
2015-Aug-18 18:09N 37°36' E 023°45'5 9.3
2015-Aug-18 17:34N 37°41' E 023°42'9 9.4
2015-Aug-18 16:33N 37°49' E 023°36'10 9.3
2015-Aug-18 15:32N 37°51' E 023°25'  

Dump ship's entire track history